createdAt,value
2022-12-29T00:03:04.721Z,0
2022-12-29T00:08:06.618Z,0
2022-12-29T00:13:08.772Z,0
2022-12-29T00:18:10.840Z,0
2022-12-29T00:23:12.728Z,0
2022-12-29T00:28:14.755Z,0
2022-12-29T00:33:16.965Z,0.88715
2022-12-29T00:38:19.897Z,0
2022-12-29T00:43:21.460Z,0
2022-12-29T00:48:23.249Z,0
2022-12-29T00:53:24.792Z,0
2022-12-29T00:58:26.291Z,0
2022-12-29T01:03:28.802Z,0
2022-12-29T01:08:30.444Z,0
2022-12-29T01:13:32.326Z,0
2022-12-29T01:18:34.437Z,0
2022-12-29T01:23:36.124Z,0
2022-12-29T01:28:38.059Z,0
2022-12-29T01:33:40.485Z,0
2022-12-29T01:38:42.465Z,0.88715
2022-12-29T01:43:44.254Z,0
2022-12-29T01:48:46.227Z,0
2022-12-29T01:53:48.037Z,0.88715
2022-12-29T01:58:49.979Z,0
2022-12-29T02:03:53.227Z,0
2022-12-29T02:08:54.895Z,0
2022-12-29T02:13:56.675Z,0
2022-12-29T02:18:58.712Z,0
2022-12-29T02:24:00.812Z,0
2022-12-29T02:29:02.896Z,0
2022-12-29T02:34:05.596Z,0
2022-12-29T02:39:07.461Z,0.88715
2022-12-29T02:44:08.974Z,0.88715
2022-12-29T02:49:11.119Z,0.88715
2022-12-29T02:54:13.041Z,0
2022-12-29T02:59:14.952Z,0.47405
2022-12-29T03:04:17.667Z,3.85445
2022-12-29T03:09:20.635Z,4.59225
2022-12-29T03:14:22.487Z,7.52565
2022-12-29T03:19:24.421Z,12.3255
2022-12-29T03:24:25.941Z,16.41425
2022-12-29T03:29:27.532Z,19.2586
2022-12-29T03:34:29.446Z,29.74705
2022-12-29T03:39:31.097Z,46.2797
2022-12-29T03:44:32.826Z,43.67245
2022-12-29T03:49:34.330Z,30.5768
2022-12-29T03:54:35.984Z,38.3395
2022-12-29T03:59:37.811Z,47.16885
2022-12-29T04:04:40.055Z,64.75355
2022-12-29T04:09:41.551Z,70.7532
2022-12-29T04:14:43.248Z,50.0132
2022-12-29T04:19:44.745Z,49.05815
2022-12-29T04:24:46.265Z,65.69295
2022-12-29T04:29:48.085Z,96.78715
2022-12-29T04:34:49.825Z,112.0395
2022-12-29T04:39:51.615Z,100.12625
2022-12-29T04:44:53.162Z,149.0018
2022-12-29T04:49:54.781Z,181.56425
2022-12-29T04:54:56.478Z,115.3786
2022-12-29T04:59:58.290Z,124.50795
2022-12-29T05:05:00.252Z,152.94755
2022-12-29T05:10:01.932Z,182.549
2022-12-29T05:15:03.367Z,259.8243
2022-12-29T05:20:05.189Z,336.3085
2022-12-29T05:25:06.804Z,352.69975
2022-12-29T05:30:08.541Z,302.03475
2022-12-29T05:35:10.489Z,299.3682
2022-12-29T05:40:12.057Z,278.21315
2022-12-29T05:45:13.967Z,235.241
2022-12-29T05:50:16.356Z,273.25115
2022-12-29T05:55:19.995Z,309.0326
2022-12-29T06:00:21.456Z,310.44935
2022-12-29T06:05:23.660Z,297.0072
2022-12-29T06:10:25.455Z,297.56055
2022-12-29T06:15:26.955Z,265.30265
2022-12-29T06:20:28.695Z,243.1515
2022-12-29T06:25:30.227Z,246.8215
2022-12-29T06:30:32.018Z,250.5105
2022-12-29T06:35:33.734Z,258.29355
2022-12-29T06:40:35.794Z,305.9521
2022-12-29T06:45:37.473Z,357.91445
2022-12-29T06:50:39.105Z,370.59545
2022-12-29T06:55:40.937Z,313.94545
2022-12-29T07:00:42.737Z,283.96825
2022-12-29T07:05:44.878Z,291.80645
2022-12-29T07:10:46.731Z,293.41135
2022-12-29T07:15:48.829Z,274.2431
2022-12-29T07:20:50.722Z,257.9265
2022-12-29T07:25:52.755Z,247.30255
2022-12-29T07:30:54.796Z,256.044
2022-12-29T07:35:56.874Z,195.1938
2022-12-29T07:40:59.027Z,208.29415
2022-12-29T07:46:00.841Z,245.015
2022-12-29T07:51:02.810Z,246.76635
2022-12-29T07:56:04.713Z,265.48525
2022-12-29T08:01:06.315Z,271.60825
2022-12-29T08:06:09.004Z,246.11985
2022-12-29T08:11:10.669Z,218.3439
2022-12-29T08:16:12.830Z,198.2407
2022-12-29T08:21:15.020Z,197.05985
2022-12-29T08:26:16.808Z,200.1765
2022-12-29T08:31:18.938Z,188.15295
2022-12-29T08:36:21.035Z,187.43415
2022-12-29T08:41:22.499Z,199.56985
2022-12-29T08:46:25.059Z,204.49485
2022-12-29T08:51:27.042Z,221.03835
2022-12-29T08:56:28.776Z,243.11535
2022-12-29T09:01:30.569Z,262.26015
2022-12-29T09:06:38.073Z,288.6708
2022-12-29T09:11:41.853Z,301.72875
2022-12-29T09:16:43.996Z,317.79305
2022-12-29T09:21:45.810Z,340.19655
2022-12-29T09:26:47.544Z,371.60295
2022-12-29T09:31:49.421Z,415.03855
2022-12-29T09:36:51.462Z,454.44465
2022-12-29T09:41:53.262Z,473.7625
2022-12-29T09:46:55.264Z,469.85155
2022-12-29T09:51:57.101Z,473.70325
2022-12-29T09:56:59.003Z,470.85885
2022-12-29T10:02:00.980Z,412.84595
2022-12-29T10:07:28.421Z,373.30695
2022-12-29T10:12:31.106Z,379.54025
2022-12-29T10:17:32.655Z,400.28355
2022-12-29T10:22:34.516Z,432.08395
2022-12-29T10:27:36.671Z,508.75075
2022-12-29T10:32:38.451Z,636.21175
2022-12-29T10:37:40.633Z,788.59675
2022-12-29T10:42:42.400Z,823.02535
2022-12-29T10:47:44.351Z,918.9622
2022-12-29T10:52:46.488Z,855.2606
2022-12-29T10:57:48.048Z,645.4312
2022-12-29T11:02:50.281Z,628.11495
2022-12-29T11:07:52.686Z,709.7809
2022-12-29T11:17:54.609Z,919.49625
2022-12-29T11:22:56.606Z,1081.2091
2022-12-29T11:27:58.103Z,1177.02775
2022-12-29T11:33:00.020Z,1153.02875
2022-12-29T11:38:02.385Z,994.69375
2022-12-29T11:43:04.184Z,839.4363
2022-12-29T11:48:06.003Z,1040.97345
2022-12-29T11:53:07.955Z,1034.9885
2022-12-29T11:58:09.585Z,986.99075
2022-12-29T12:03:11.554Z,1361.8519
2022-12-29T12:08:17.570Z,1759.94145
2022-12-29T12:13:22.383Z,1226.50905
2022-12-29T12:18:24.440Z,952.6511
2022-12-29T12:23:26.077Z,958.58595
2022-12-29T12:28:30.538Z,1510.52885
2022-12-29T12:33:36.682Z,1540.0394
2022-12-29T12:38:38.916Z,1306.3512
2022-12-29T12:43:40.735Z,1129.9099
2022-12-29T12:48:42.533Z,1172.9952
2022-12-29T12:53:44.532Z,1214.9854
2022-12-29T12:58:46.334Z,1009.47145
2022-12-29T13:03:48.226Z,866.98425
2022-12-29T13:08:50.523Z,726.88935
2022-12-29T13:13:52.403Z,643.00815
2022-12-29T13:18:54.468Z,801.7821
2022-12-29T13:23:56.387Z,1601.506
2022-12-29T13:28:57.973Z,2014.20185
2022-12-29T13:33:59.871Z,2295.85615
2022-12-29T13:39:01.689Z,1322.8952
2022-12-29T13:44:03.525Z,1310.5426
2022-12-29T13:49:05.611Z,1862.88845
2022-12-29T13:54:07.482Z,2057.1111
2022-12-29T13:59:09.437Z,2474.3079
2022-12-29T14:04:11.574Z,2477.76335
2022-12-29T14:09:13.799Z,2375.30785
2022-12-29T14:14:15.864Z,2334.70985
2022-12-29T14:19:17.775Z,2337.78665
2022-12-29T14:24:19.550Z,1854.02795
2022-12-29T14:29:21.583Z,2390.67655
2022-12-29T14:34:23.642Z,726.1312
2022-12-29T14:39:25.432Z,2336.26145
2022-12-29T14:44:27.391Z,638.941
2022-12-29T14:49:28.982Z,818.4211
2022-12-29T14:54:30.468Z,2113.5612
2022-12-29T14:59:31.990Z,2132.8543
2022-12-29T15:04:33.490Z,931.7499
2022-12-29T15:09:35.662Z,610.99775
2022-12-29T15:14:37.482Z,631.52685
2022-12-29T15:19:39.303Z,437.4599
2022-12-29T15:24:42.765Z,398.97055
2022-12-29T15:29:44.508Z,417.85675
2022-12-29T15:34:46.006Z,1566.05275
2022-12-29T15:39:47.877Z,1112.57815
2022-12-29T15:44:54.384Z,586.3556
2022-12-29T15:49:59.745Z,412.0744
2022-12-29T15:55:01.456Z,730.539
2022-12-29T16:00:02.982Z,259.0944
2022-12-29T16:05:18.575Z,226.72805
2022-12-29T16:10:20.659Z,205.33555
2022-12-29T16:15:22.132Z,334.30645
2022-12-29T16:20:23.702Z,246.8901
2022-12-29T16:25:25.752Z,171.9765
2022-12-29T16:30:33.230Z,113.4961
2022-12-29T16:35:35.646Z,74.0655
2022-12-29T16:40:37.384Z,50.6802
2022-12-29T16:45:39.097Z,28.0517
2022-12-29T16:50:40.805Z,18.7253
2022-12-29T16:55:42.655Z,10.5478
2022-12-29T17:00:44.320Z,10.21705
2022-12-29T17:05:46.290Z,2.42955
2022-12-29T17:10:48.757Z,6.9711
2022-12-29T17:15:50.758Z,0.8296
2022-12-29T17:20:52.442Z,1.16185
2022-12-29T17:25:54.305Z,0
2022-12-29T17:30:56.067Z,0.88715
2022-12-29T17:35:57.952Z,0.88715
2022-12-29T17:41:00.105Z,0.88715
2022-12-29T17:46:02.025Z,0.88715
2022-12-29T17:51:03.874Z,0.88715
2022-12-29T17:56:05.874Z,0
2022-12-29T18:01:07.721Z,0
2022-12-29T18:06:09.576Z,0
2022-12-29T18:11:12.107Z,0
2022-12-29T18:16:14.312Z,0.88715
2022-12-29T18:21:16.179Z,0
2022-12-29T18:26:22.353Z,0
2022-12-29T18:31:29.067Z,0
2022-12-29T18:36:30.614Z,0.88715
2022-12-29T18:41:32.595Z,0
2022-12-29T18:46:34.212Z,0
2022-12-29T18:51:35.789Z,0
2022-12-29T18:56:37.494Z,0
2022-12-29T19:01:39.399Z,0
2022-12-29T19:06:40.985Z,0
2022-12-29T19:11:43.319Z,0
2022-12-29T19:16:45.273Z,0
2022-12-29T19:21:46.836Z,0
2022-12-29T19:26:48.421Z,0
2022-12-29T19:31:50.167Z,0
2022-12-29T19:36:51.841Z,0
2022-12-29T19:41:53.703Z,0
2022-12-29T19:46:55.545Z,0
2022-12-29T19:51:57.312Z,0
2022-12-29T19:56:58.923Z,0
2022-12-29T20:02:01.022Z,0
2022-12-29T20:07:02.852Z,0
2022-12-29T20:12:04.620Z,0
2022-12-29T20:17:11.310Z,0
2022-12-29T20:22:13.322Z,0
2022-12-29T20:27:14.994Z,0
2022-12-29T20:32:16.721Z,0
2022-12-29T20:37:18.392Z,0
2022-12-29T20:42:20.333Z,0
2022-12-29T20:47:21.928Z,0.88715
2022-12-29T20:52:23.575Z,0.88715
2022-12-29T20:57:25.850Z,0
2022-12-29T21:02:27.585Z,0.88715
2022-12-29T21:08:19.316Z,0
2022-12-29T21:13:21.689Z,0
2022-12-29T21:18:23.428Z,0
2022-12-29T21:23:25.217Z,0
2022-12-29T21:28:26.738Z,0
2022-12-29T21:33:28.283Z,0
2022-12-29T21:38:30.295Z,0
2022-12-29T21:43:32.082Z,0
2022-12-29T21:48:33.988Z,0
2022-12-29T21:53:35.891Z,0
2022-12-29T21:58:37.808Z,0.88715
2022-12-29T22:03:39.578Z,0
2022-12-29T22:08:41.172Z,0
2022-12-29T22:13:43.406Z,0
2022-12-29T22:18:45.214Z,0
2022-12-29T22:23:46.812Z,0
2022-12-29T22:28:48.678Z,0
2022-12-29T22:33:51.249Z,0
2022-12-29T22:38:52.808Z,0
2022-12-29T22:43:54.884Z,0
2022-12-29T22:48:56.552Z,0
2022-12-29T22:53:58.287Z,0
2022-12-29T22:59:00.228Z,0
2022-12-29T23:04:45.511Z,0
2022-12-29T23:10:03.297Z,0
2022-12-29T23:15:06.077Z,0
2022-12-29T23:20:07.754Z,0
2022-12-29T23:25:09.459Z,0
2022-12-29T23:30:10.948Z,0
2022-12-29T23:35:12.776Z,0
2022-12-29T23:40:14.297Z,0
2022-12-29T23:45:16.247Z,0
2022-12-29T23:50:17.912Z,0
2022-12-29T23:55:19.925Z,0
